Terminal Aerodrome Forecast
Issued by NWS

Home | Current Version | Previous Version | Text Only | Print | Product List | Glossary On
Versions: 1 2 3 4 5 6 7 8 9 10 11 12 13 14 15 16
000
FTUS43 KMPX 231728
TAFRNH
TAF
KRNH 231728Z 2318/2418 22005KT P6SM SKC
     FM240100 VRB02KT P6SM SCT250
     FM240900 00000KT P6SM BKN100
     FM241600 01009G17KT P6SM OVC050=

USA.gov is the U.S. government's official web portal to all federal, state and local government web resources and services.